sensor_id;sensor_type;location;lat;lon;timestamp;P1;durP1;ratioP1;P2;durP2;ratioP2
28926;SDS011;16038;47.692;9.400;2023-08-20T00:01:30;17.15;;;10.82;;
28926;SDS011;16038;47.692;9.400;2023-08-20T00:03:56;10.70;;;6.60;;
28926;SDS011;16038;47.692;9.400;2023-08-20T00:06:22;15.90;;;7.40;;
28926;SDS011;16038;47.692;9.400;2023-08-20T00:08:48;14.57;;;7.40;;
28926;SDS011;16038;47.692;9.400;2023-08-20T00:11:13;8.73;;;6.10;;
28926;SDS011;16038;47.692;9.400;2023-08-20T00:13:39;10.38;;;6.70;;
28926;SDS011;16038;47.692;9.400;2023-08-20T00:16:05;8.43;;;5.78;;
28926;SDS011;16038;47.692;9.400;2023-08-20T00:18:31;11.40;;;6.78;;
28926;SDS011;16038;47.692;9.400;2023-08-20T00:20:57;10.63;;;6.85;;
28926;SDS011;16038;47.692;9.400;2023-08-20T00:23:23;14.63;;;6.43;;
28926;SDS011;16038;47.692;9.400;2023-08-20T00:25:49;14.80;;;6.90;;
28926;SDS011;16038;47.692;9.400;2023-08-20T00:28:14;13.95;;;6.97;;
28926;SDS011;16038;47.692;9.400;2023-08-20T00:30:40;14.63;;;7.28;;
28926;SDS011;16038;47.692;9.400;2023-08-20T00:33:05;11.98;;;7.40;;
28926;SDS011;16038;47.692;9.400;2023-08-20T00:35:31;11.52;;;6.97;;
28926;SDS011;16038;47.692;9.400;2023-08-20T00:37:57;11.15;;;6.63;;
28926;SDS011;16038;47.692;9.400;2023-08-20T00:40:22;11.80;;;6.78;;
28926;SDS011;16038;47.692;9.400;2023-08-20T00:42:48;10.35;;;7.15;;
28926;SDS011;16038;47.692;9.400;2023-08-20T00:45:14;13.90;;;8.00;;
28926;SDS011;16038;47.692;9.400;2023-08-20T00:47:41;8.93;;;7.55;;
28926;SDS011;16038;47.692;9.400;2023-08-20T00:50:07;16.88;;;8.80;;
28926;SDS011;16038;47.692;9.400;2023-08-20T00:52:33;13.13;;;8.25;;
28926;SDS011;16038;47.692;9.400;2023-08-20T00:54:59;16.23;;;8.30;;
28926;SDS011;16038;47.692;9.400;2023-08-20T00:57:25;20.67;;;8.90;;
28926;SDS011;16038;47.692;9.400;2023-08-20T00:59:51;12.40;;;7.90;;
28926;SDS011;16038;47.692;9.400;2023-08-20T01:02:19;10.10;;;7.35;;
28926;SDS011;16038;47.692;9.400;2023-08-20T01:04:45;12.73;;;6.38;;
28926;SDS011;16038;47.692;9.400;2023-08-20T01:12:22;12.27;;;7.55;;
28926;SDS011;16038;47.692;9.400;2023-08-20T01:14:49;15.40;;;8.00;;
28926;SDS011;16038;47.692;9.400;2023-08-20T01:17:14;11.80;;;8.15;;
28926;SDS011;16038;47.692;9.400;2023-08-20T01:19:40;10.93;;;7.25;;
28926;SDS011;16038;47.692;9.400;2023-08-20T01:22:21;11.38;;;7.30;;
28926;SDS011;16038;47.692;9.400;2023-08-20T01:30:47;11.02;;;7.28;;
28926;SDS011;16038;47.692;9.400;2023-08-20T01:33:13;12.32;;;7.40;;
28926;SDS011;16038;47.692;9.400;2023-08-20T01:35:40;14.18;;;7.25;;
28926;SDS011;16038;47.692;9.400;2023-08-20T01:38:06;14.70;;;8.00;;
28926;SDS011;16038;47.692;9.400;2023-08-20T01:40:31;15.73;;;7.97;;
28926;SDS011;16038;47.692;9.400;2023-08-20T01:42:56;12.80;;;8.43;;
28926;SDS011;16038;47.692;9.400;2023-08-20T01:45:22;15.15;;;8.68;;
28926;SDS011;16038;47.692;9.400;2023-08-20T01:47:48;16.48;;;9.52;;
28926;SDS011;16038;47.692;9.400;2023-08-20T01:50:14;14.60;;;9.98;;
28926;SDS011;16038;47.692;9.400;2023-08-20T01:52:39;12.65;;;9.45;;
28926;SDS011;16038;47.692;9.400;2023-08-20T01:55:04;20.75;;;10.18;;
28926;SDS011;16038;47.692;9.400;2023-08-20T01:57:30;14.05;;;9.30;;
28926;SDS011;16038;47.692;9.400;2023-08-20T01:59:56;15.30;;;8.65;;
28926;SDS011;16038;47.692;9.400;2023-08-20T02:02:23;17.17;;;8.57;;
28926;SDS011;16038;47.692;9.400;2023-08-20T02:04:48;16.90;;;9.63;;
28926;SDS011;16038;47.692;9.400;2023-08-20T02:07:13;14.98;;;9.60;;
28926;SDS011;16038;47.692;9.400;2023-08-20T02:09:39;17.60;;;10.40;;
28926;SDS011;16038;47.692;9.400;2023-08-20T02:12:04;22.05;;;10.23;;
28926;SDS011;16038;47.692;9.400;2023-08-20T02:14:30;12.18;;;8.20;;
28926;SDS011;16038;47.692;9.400;2023-08-20T02:16:59;16.67;;;8.48;;
28926;SDS011;16038;47.692;9.400;2023-08-20T02:19:25;16.83;;;8.98;;
28926;SDS011;16038;47.692;9.400;2023-08-20T02:21:50;13.02;;;8.70;;
28926;SDS011;16038;47.692;9.400;2023-08-20T02:24:16;17.10;;;7.80;;
28926;SDS011;16038;47.692;9.400;2023-08-20T02:26:41;12.05;;;7.43;;
28926;SDS011;16038;47.692;9.400;2023-08-20T02:29:06;13.00;;;7.95;;
28926;SDS011;16038;47.692;9.400;2023-08-20T02:31:32;14.30;;;8.20;;
28926;SDS011;16038;47.692;9.400;2023-08-20T02:33:57;14.98;;;9.23;;
28926;SDS011;16038;47.692;9.400;2023-08-20T02:36:22;16.13;;;9.27;;
28926;SDS011;16038;47.692;9.400;2023-08-20T02:38:48;13.35;;;8.35;;
28926;SDS011;16038;47.692;9.400;2023-08-20T02:41:13;13.70;;;8.35;;
28926;SDS011;16038;47.692;9.400;2023-08-20T02:43:39;12.38;;;9.88;;
28926;SDS011;16038;47.692;9.400;2023-08-20T02:46:04;15.88;;;9.52;;
28926;SDS011;16038;47.692;9.400;2023-08-20T02:48:29;13.23;;;9.02;;
28926;SDS011;16038;47.692;9.400;2023-08-20T02:50:55;15.30;;;9.50;;
28926;SDS011;16038;47.692;9.400;2023-08-20T02:53:21;15.95;;;8.95;;
28926;SDS011;16038;47.692;9.400;2023-08-20T02:55:47;17.15;;;9.38;;
28926;SDS011;16038;47.692;9.400;2023-08-20T02:58:13;12.93;;;9.15;;
28926;SDS011;16038;47.692;9.400;2023-08-20T03:00:38;14.13;;;8.80;;
28926;SDS011;16038;47.692;9.400;2023-08-20T03:03:03;18.02;;;9.32;;
28926;SDS011;16038;47.692;9.400;2023-08-20T03:05:36;14.90;;;9.10;;
28926;SDS011;16038;47.692;9.400;2023-08-20T03:08:01;14.52;;;9.10;;
28926;SDS011;16038;47.692;9.400;2023-08-20T03:10:29;15.45;;;9.70;;
28926;SDS011;16038;47.692;9.400;2023-08-20T03:12:55;17.20;;;9.48;;
28926;SDS011;16038;47.692;9.400;2023-08-20T03:15:20;13.38;;;8.48;;
28926;SDS011;16038;47.692;9.400;2023-08-20T03:17:45;12.43;;;8.65;;
28926;SDS011;16038;47.692;9.400;2023-08-20T03:20:11;12.63;;;8.40;;
28926;SDS011;16038;47.692;9.400;2023-08-20T03:22:37;10.98;;;8.68;;
28926;SDS011;16038;47.692;9.400;2023-08-20T03:25:03;14.68;;;9.10;;
28926;SDS011;16038;47.692;9.400;2023-08-20T03:27:29;13.43;;;9.02;;
28926;SDS011;16038;47.692;9.400;2023-08-20T03:29:55;13.77;;;9.90;;
28926;SDS011;16038;47.692;9.400;2023-08-20T03:32:21;19.48;;;9.35;;
28926;SDS011;16038;47.692;9.400;2023-08-20T03:34:47;13.52;;;9.00;;
28926;SDS011;16038;47.692;9.400;2023-08-20T03:37:12;14.82;;;9.30;;
28926;SDS011;16038;47.692;9.400;2023-08-20T03:39:38;18.55;;;9.60;;
28926;SDS011;16038;47.692;9.400;2023-08-20T03:42:03;13.23;;;8.95;;
28926;SDS011;16038;47.692;9.400;2023-08-20T03:44:30;13.35;;;8.98;;
28926;SDS011;16038;47.692;9.400;2023-08-20T03:46:56;12.30;;;9.40;;
28926;SDS011;16038;47.692;9.400;2023-08-20T03:49:21;12.88;;;9.13;;
28926;SDS011;16038;47.692;9.400;2023-08-20T03:51:47;13.43;;;8.23;;
28926;SDS011;16038;47.692;9.400;2023-08-20T03:54:12;19.83;;;8.95;;
28926;SDS011;16038;47.692;9.400;2023-08-20T03:56:38;14.50;;;8.18;;
28926;SDS011;16038;47.692;9.400;2023-08-20T03:59:03;13.32;;;8.48;;
28926;SDS011;16038;47.692;9.400;2023-08-20T04:01:29;16.40;;;8.43;;
28926;SDS011;16038;47.692;9.400;2023-08-20T04:03:54;14.25;;;8.00;;
28926;SDS011;16038;47.692;9.400;2023-08-20T04:06:19;15.55;;;8.38;;
28926;SDS011;16038;47.692;9.400;2023-08-20T04:08:45;18.67;;;9.65;;
28926;SDS011;16038;47.692;9.400;2023-08-20T04:11:10;16.60;;;10.55;;
28926;SDS011;16038;47.692;9.400;2023-08-20T04:13:36;19.45;;;10.50;;
28926;SDS011;16038;47.692;9.400;2023-08-20T04:16:02;15.45;;;9.98;;
28926;SDS011;16038;47.692;9.400;2023-08-20T04:18:27;13.65;;;9.50;;
28926;SDS011;16038;47.692;9.400;2023-08-20T04:20:53;16.30;;;9.40;;
28926;SDS011;16038;47.692;9.400;2023-08-20T04:23:19;14.27;;;9.77;;
28926;SDS011;16038;47.692;9.400;2023-08-20T04:25:44;14.25;;;9.45;;
28926;SDS011;16038;47.692;9.400;2023-08-20T04:28:11;15.35;;;9.43;;
28926;SDS011;16038;47.692;9.400;2023-08-20T04:30:37;16.15;;;9.23;;
28926;SDS011;16038;47.692;9.400;2023-08-20T04:33:03;11.43;;;9.05;;
28926;SDS011;16038;47.692;9.400;2023-08-20T04:35:28;12.65;;;8.75;;
28926;SDS011;16038;47.692;9.400;2023-08-20T04:37:54;13.38;;;9.15;;
28926;SDS011;16038;47.692;9.400;2023-08-20T04:40:19;12.85;;;8.57;;
28926;SDS011;16038;47.692;9.400;2023-08-20T04:42:46;18.73;;;10.15;;
28926;SDS011;16038;47.692;9.400;2023-08-20T04:45:11;16.98;;;10.98;;
28926;SDS011;16038;47.692;9.400;2023-08-20T04:47:37;17.67;;;12.40;;
28926;SDS011;16038;47.692;9.400;2023-08-20T04:50:04;15.10;;;11.27;;
28926;SDS011;16038;47.692;9.400;2023-08-20T04:52:32;18.23;;;11.55;;
28926;SDS011;16038;47.692;9.400;2023-08-20T04:54:58;17.23;;;11.35;;
28926;SDS011;16038;47.692;9.400;2023-08-20T04:57:23;21.15;;;11.13;;
28926;SDS011;16038;47.692;9.400;2023-08-20T04:59:49;13.43;;;10.02;;
28926;SDS011;16038;47.692;9.400;2023-08-20T05:02:14;15.65;;;11.13;;
28926;SDS011;16038;47.692;9.400;2023-08-20T05:04:40;17.40;;;11.50;;
28926;SDS011;16038;47.692;9.400;2023-08-20T05:07:05;23.33;;;12.25;;
28926;SDS011;16038;47.692;9.400;2023-08-20T05:09:31;15.30;;;11.82;;
28926;SDS011;16038;47.692;9.400;2023-08-20T05:11:57;19.38;;;11.45;;
28926;SDS011;16038;47.692;9.400;2023-08-20T05:14:22;19.05;;;11.57;;
28926;SDS011;16038;47.692;9.400;2023-08-20T05:16:48;16.80;;;11.35;;
28926;SDS011;16038;47.692;9.400;2023-08-20T05:19:13;16.17;;;10.23;;
28926;SDS011;16038;47.692;9.400;2023-08-20T05:21:38;15.02;;;10.77;;
28926;SDS011;16038;47.692;9.400;2023-08-20T05:24:04;17.98;;;10.15;;
28926;SDS011;16038;47.692;9.400;2023-08-20T05:26:30;16.33;;;9.52;;
28926;SDS011;16038;47.692;9.400;2023-08-20T05:28:55;11.27;;;8.50;;
28926;SDS011;16038;47.692;9.400;2023-08-20T05:31:20;14.77;;;7.40;;
28926;SDS011;16038;47.692;9.400;2023-08-20T05:33:46;11.80;;;7.10;;
28926;SDS011;16038;47.692;9.400;2023-08-20T05:36:11;10.93;;;6.60;;
28926;SDS011;16038;47.692;9.400;2023-08-20T05:38:37;9.68;;;6.63;;
28926;SDS011;16038;47.692;9.400;2023-08-20T05:41:02;12.65;;;6.38;;
28926;SDS011;16038;47.692;9.400;2023-08-20T05:43:27;16.42;;;6.10;;
28926;SDS011;16038;47.692;9.400;2023-08-20T05:45:53;11.93;;;6.30;;
28926;SDS011;16038;47.692;9.400;2023-08-20T05:48:18;12.63;;;7.20;;
28926;SDS011;16038;47.692;9.400;2023-08-20T05:50:44;11.63;;;7.30;;
28926;SDS011;16038;47.692;9.400;2023-08-20T05:53:09;15.55;;;7.43;;
28926;SDS011;16038;47.692;9.400;2023-08-20T05:55:35;14.10;;;7.57;;
28926;SDS011;16038;47.692;9.400;2023-08-20T05:58:00;12.00;;;6.47;;
28926;SDS011;16038;47.692;9.400;2023-08-20T06:00:26;9.27;;;6.15;;
28926;SDS011;16038;47.692;9.400;2023-08-20T06:02:51;11.50;;;6.55;;
28926;SDS011;16038;47.692;9.400;2023-08-20T06:05:17;9.02;;;6.22;;
28926;SDS011;16038;47.692;9.400;2023-08-20T06:07:42;14.52;;;6.72;;
28926;SDS011;16038;47.692;9.400;2023-08-20T06:10:07;12.00;;;6.47;;
28926;SDS011;16038;47.692;9.400;2023-08-20T06:12:33;13.75;;;6.80;;
28926;SDS011;16038;47.692;9.400;2023-08-20T06:14:59;11.75;;;6.32;;
28926;SDS011;16038;47.692;9.400;2023-08-20T06:17:24;15.90;;;7.10;;
28926;SDS011;16038;47.692;9.400;2023-08-20T06:19:50;13.77;;;7.55;;
28926;SDS011;16038;47.692;9.400;2023-08-20T06:22:15;16.75;;;8.00;;
28926;SDS011;16038;47.692;9.400;2023-08-20T06:24:40;9.48;;;6.65;;
28926;SDS011;16038;47.692;9.400;2023-08-20T06:27:06;10.27;;;6.80;;
28926;SDS011;16038;47.692;9.400;2023-08-20T06:29:31;10.00;;;5.85;;
28926;SDS011;16038;47.692;9.400;2023-08-20T06:31:57;12.38;;;7.05;;
28926;SDS011;16038;47.692;9.400;2023-08-20T06:34:22;11.43;;;6.90;;
28926;SDS011;16038;47.692;9.400;2023-08-20T06:36:48;12.68;;;7.20;;
28926;SDS011;16038;47.692;9.400;2023-08-20T06:39:14;10.77;;;5.75;;
28926;SDS011;16038;47.692;9.400;2023-08-20T06:41:40;9.80;;;6.03;;
28926;SDS011;16038;47.692;9.400;2023-08-20T06:44:06;11.32;;;5.20;;
28926;SDS011;16038;47.692;9.400;2023-08-20T06:46:32;11.48;;;6.43;;
28926;SDS011;16038;47.692;9.400;2023-08-20T06:48:57;10.65;;;5.50;;
28926;SDS011;16038;47.692;9.400;2023-08-20T06:51:23;11.55;;;5.95;;
28926;SDS011;16038;47.692;9.400;2023-08-20T06:53:50;9.05;;;5.80;;
28926;SDS011;16038;47.692;9.400;2023-08-20T06:56:15;13.65;;;5.95;;
28926;SDS011;16038;47.692;9.400;2023-08-20T06:58:41;8.00;;;5.60;;
28926;SDS011;16038;47.692;9.400;2023-08-20T07:01:07;7.90;;;5.65;;
28926;SDS011;16038;47.692;9.400;2023-08-20T07:03:37;10.93;;;5.80;;
28926;SDS011;16038;47.692;9.400;2023-08-20T07:06:04;10.50;;;7.47;;
28926;SDS011;16038;47.692;9.400;2023-08-20T07:08:30;12.27;;;6.97;;
28926;SDS011;16038;47.692;9.400;2023-08-20T07:10:56;14.20;;;6.70;;
28926;SDS011;16038;47.692;9.400;2023-08-20T07:13:21;10.20;;;6.63;;
28926;SDS011;16038;47.692;9.400;2023-08-20T07:15:47;15.77;;;7.28;;
28926;SDS011;16038;47.692;9.400;2023-08-20T07:18:13;13.10;;;5.93;;
28926;SDS011;16038;47.692;9.400;2023-08-20T07:20:40;10.93;;;5.65;;
28926;SDS011;16038;47.692;9.400;2023-08-20T07:23:07;8.85;;;6.60;;
28926;SDS011;16038;47.692;9.400;2023-08-20T07:25:32;10.10;;;6.68;;
28926;SDS011;16038;47.692;9.400;2023-08-20T07:27:57;14.70;;;7.30;;
28926;SDS011;16038;47.692;9.400;2023-08-20T07:30:27;10.75;;;5.60;;
28926;SDS011;16038;47.692;9.400;2023-08-20T07:32:53;13.02;;;5.10;;
28926;SDS011;16038;47.692;9.400;2023-08-20T07:35:18;9.13;;;5.82;;
28926;SDS011;16038;47.692;9.400;2023-08-20T07:37:44;9.38;;;6.00;;
28926;SDS011;16038;47.692;9.400;2023-08-20T07:40:11;11.75;;;6.25;;
28926;SDS011;16038;47.692;9.400;2023-08-20T07:42:36;12.13;;;5.65;;
28926;SDS011;16038;47.692;9.400;2023-08-20T07:45:02;8.75;;;6.00;;
28926;SDS011;16038;47.692;9.400;2023-08-20T07:47:28;8.77;;;6.00;;
28926;SDS011;16038;47.692;9.400;2023-08-20T07:49:54;10.10;;;6.45;;
28926;SDS011;16038;47.692;9.400;2023-08-20T07:52:20;14.45;;;6.70;;
28926;SDS011;16038;47.692;9.400;2023-08-20T07:54:45;15.00;;;6.32;;
28926;SDS011;16038;47.692;9.400;2023-08-20T07:57:11;13.05;;;6.13;;
28926;SDS011;16038;47.692;9.400;2023-08-20T07:59:37;11.85;;;6.30;;
28926;SDS011;16038;47.692;9.400;2023-08-20T08:02:03;9.00;;;5.90;;
28926;SDS011;16038;47.692;9.400;2023-08-20T08:04:28;9.63;;;5.90;;
28926;SDS011;16038;47.692;9.400;2023-08-20T08:06:54;8.30;;;5.97;;
28926;SDS011;16038;47.692;9.400;2023-08-20T08:09:21;9.48;;;5.53;;
28926;SDS011;16038;47.692;9.400;2023-08-20T08:11:51;9.50;;;5.50;;
28926;SDS011;16038;47.692;9.400;2023-08-20T08:14:17;11.63;;;6.18;;
28926;SDS011;16038;47.692;9.400;2023-08-20T08:16:43;8.48;;;6.70;;
28926;SDS011;16038;47.692;9.400;2023-08-20T08:19:09;12.73;;;6.53;;
28926;SDS011;16038;47.692;9.400;2023-08-20T08:21:34;9.68;;;6.25;;
28926;SDS011;16038;47.692;9.400;2023-08-20T08:24:00;12.48;;;6.40;;
28926;SDS011;16038;47.692;9.400;2023-08-20T08:26:25;10.10;;;6.80;;
28926;SDS011;16038;47.692;9.400;2023-08-20T08:28:50;11.82;;;7.10;;
28926;SDS011;16038;47.692;9.400;2023-08-20T08:31:16;10.20;;;6.35;;
28926;SDS011;16038;47.692;9.400;2023-08-20T08:33:41;10.98;;;6.75;;
28926;SDS011;16038;47.692;9.400;2023-08-20T08:36:07;9.02;;;6.60;;
28926;SDS011;16038;47.692;9.400;2023-08-20T08:38:32;9.48;;;7.13;;
28926;SDS011;16038;47.692;9.400;2023-08-20T08:40:58;10.35;;;6.45;;
28926;SDS011;16038;47.692;9.400;2023-08-20T08:43:24;11.38;;;5.65;;
28926;SDS011;16038;47.692;9.400;2023-08-20T08:45:51;8.43;;;6.47;;
28926;SDS011;16038;47.692;9.400;2023-08-20T08:48:20;9.07;;;6.05;;
28926;SDS011;16038;47.692;9.400;2023-08-20T08:50:46;11.77;;;6.30;;
28926;SDS011;16038;47.692;9.400;2023-08-20T08:53:12;9.45;;;6.88;;
28926;SDS011;16038;47.692;9.400;2023-08-20T08:55:38;11.38;;;6.00;;
28926;SDS011;16038;47.692;9.400;2023-08-20T08:58:04;14.05;;;5.82;;
28926;SDS011;16038;47.692;9.400;2023-08-20T09:00:29;10.45;;;5.88;;
28926;SDS011;16038;47.692;9.400;2023-08-20T09:02:57;8.80;;;5.85;;
28926;SDS011;16038;47.692;9.400;2023-08-20T09:05:23;11.25;;;6.15;;
28926;SDS011;16038;47.692;9.400;2023-08-20T09:07:54;11.30;;;6.55;;
28926;SDS011;16038;47.692;9.400;2023-08-20T09:10:20;11.52;;;6.38;;
28926;SDS011;16038;47.692;9.400;2023-08-20T09:12:47;15.30;;;6.70;;
28926;SDS011;16038;47.692;9.400;2023-08-20T09:15:13;8.77;;;6.63;;
28926;SDS011;16038;47.692;9.400;2023-08-20T09:17:42;9.18;;;6.05;;
28926;SDS011;16038;47.692;9.400;2023-08-20T09:20:07;15.00;;;6.78;;
28926;SDS011;16038;47.692;9.400;2023-08-20T09:22:33;11.40;;;6.82;;
28926;SDS011;16038;47.692;9.400;2023-08-20T09:25:03;10.68;;;7.43;;
28926;SDS011;16038;47.692;9.400;2023-08-20T09:27:29;13.40;;;6.93;;
28926;SDS011;16038;47.692;9.400;2023-08-20T09:29:55;10.57;;;6.55;;
28926;SDS011;16038;47.692;9.400;2023-08-20T09:32:24;10.57;;;7.35;;
28926;SDS011;16038;47.692;9.400;2023-08-20T09:34:51;14.35;;;6.93;;
28926;SDS011;16038;47.692;9.400;2023-08-20T09:37:19;10.80;;;6.93;;
28926;SDS011;16038;47.692;9.400;2023-08-20T09:39:46;12.02;;;7.15;;
28926;SDS011;16038;47.692;9.400;2023-08-20T09:42:12;13.48;;;6.57;;
28926;SDS011;16038;47.692;9.400;2023-08-20T09:44:39;10.43;;;7.32;;
28926;SDS011;16038;47.692;9.400;2023-08-20T09:47:09;11.30;;;6.75;;
28926;SDS011;16038;47.692;9.400;2023-08-20T09:49:37;11.77;;;6.93;;
28926;SDS011;16038;47.692;9.400;2023-08-20T09:52:07;8.90;;;6.80;;
28926;SDS011;16038;47.692;9.400;2023-08-20T09:54:59;10.13;;;6.93;;
28926;SDS011;16038;47.692;9.400;2023-08-20T09:57:34;11.98;;;7.88;;
28926;SDS011;16038;47.692;9.400;2023-08-20T10:00:03;10.13;;;7.28;;
28926;SDS011;16038;47.692;9.400;2023-08-20T10:02:34;10.55;;;6.95;;
28926;SDS011;16038;47.692;9.400;2023-08-20T10:05:00;12.43;;;7.50;;
28926;SDS011;16038;47.692;9.400;2023-08-20T10:07:28;11.35;;;6.68;;
28926;SDS011;16038;47.692;9.400;2023-08-20T10:09:58;13.07;;;8.10;;
28926;SDS011;16038;47.692;9.400;2023-08-20T10:12:25;15.57;;;7.65;;
28926;SDS011;16038;47.692;9.400;2023-08-20T10:14:52;13.00;;;7.05;;
28926;SDS011;16038;47.692;9.400;2023-08-20T10:17:18;10.30;;;7.00;;
28926;SDS011;16038;47.692;9.400;2023-08-20T10:19:44;11.50;;;7.47;;
28926;SDS011;16038;47.692;9.400;2023-08-20T10:22:11;14.90;;;8.00;;
28926;SDS011;16038;47.692;9.400;2023-08-20T10:24:40;13.85;;;7.65;;
28926;SDS011;16038;47.692;9.400;2023-08-20T10:27:12;10.00;;;6.93;;
28926;SDS011;16038;47.692;9.400;2023-08-20T10:29:39;11.13;;;7.20;;
28926;SDS011;16038;47.692;9.400;2023-08-20T10:32:10;12.93;;;7.88;;
28926;SDS011;16038;47.692;9.400;2023-08-20T10:34:39;14.20;;;8.13;;
28926;SDS011;16038;47.692;9.400;2023-08-20T10:37:09;13.63;;;7.45;;
28926;SDS011;16038;47.692;9.400;2023-08-20T10:39:35;11.32;;;7.10;;
28926;SDS011;16038;47.692;9.400;2023-08-20T10:45:18;8.68;;;6.03;;
28926;SDS011;16038;47.692;9.400;2023-08-20T10:47:47;11.85;;;5.82;;
28926;SDS011;16038;47.692;9.400;2023-08-20T10:50:17;10.43;;;7.07;;
28926;SDS011;16038;47.692;9.400;2023-08-20T10:52:50;15.35;;;7.38;;
28926;SDS011;16038;47.692;9.400;2023-08-20T10:55:22;15.80;;;7.72;;
28926;SDS011;16038;47.692;9.400;2023-08-20T10:57:55;13.15;;;7.28;;
28926;SDS011;16038;47.692;9.400;2023-08-20T11:00:22;13.80;;;7.43;;
28926;SDS011;16038;47.692;9.400;2023-08-20T11:02:47;14.32;;;8.13;;
28926;SDS011;16038;47.692;9.400;2023-08-20T11:05:18;10.77;;;7.18;;
28926;SDS011;16038;47.692;9.400;2023-08-20T11:07:47;12.82;;;7.90;;
28926;SDS011;16038;47.692;9.400;2023-08-20T11:10:14;14.98;;;8.40;;
28926;SDS011;16038;47.692;9.400;2023-08-20T11:15:10;15.75;;;8.85;;
28926;SDS011;16038;47.692;9.400;2023-08-20T11:17:40;12.98;;;8.52;;
28926;SDS011;16038;47.692;9.400;2023-08-20T11:20:13;9.80;;;7.40;;
28926;SDS011;16038;47.692;9.400;2023-08-20T11:22:39;11.90;;;8.50;;
28926;SDS011;16038;47.692;9.400;2023-08-20T11:25:06;14.23;;;8.32;;
28926;SDS011;16038;47.692;9.400;2023-08-20T11:27:41;15.63;;;9.00;;
28926;SDS011;16038;47.692;9.400;2023-08-20T11:30:07;13.45;;;8.85;;
28926;SDS011;16038;47.692;9.400;2023-08-20T11:32:39;15.13;;;8.75;;
28926;SDS011;16038;47.692;9.400;2023-08-20T11:35:05;12.95;;;8.35;;
28926;SDS011;16038;47.692;9.400;2023-08-20T11:37:32;13.93;;;7.72;;
28926;SDS011;16038;47.692;9.400;2023-08-20T11:39:58;15.80;;;7.80;;
28926;SDS011;16038;47.692;9.400;2023-08-20T11:42:24;11.63;;;8.20;;
28926;SDS011;16038;47.692;9.400;2023-08-20T11:44:50;16.63;;;8.73;;
28926;SDS011;16038;47.692;9.400;2023-08-20T11:47:16;16.70;;;7.55;;
28926;SDS011;16038;47.692;9.400;2023-08-20T11:49:43;13.25;;;8.05;;
28926;SDS011;16038;47.692;9.400;2023-08-20T11:52:09;12.95;;;7.80;;
28926;SDS011;16038;47.692;9.400;2023-08-20T11:54:35;13.13;;;8.48;;
28926;SDS011;16038;47.692;9.400;2023-08-20T11:57:04;12.45;;;8.52;;
28926;SDS011;16038;47.692;9.400;2023-08-20T11:59:32;15.95;;;7.63;;
28926;SDS011;16038;47.692;9.400;2023-08-20T12:01:58;14.32;;;8.00;;
28926;SDS011;16038;47.692;9.400;2023-08-20T12:04:26;12.48;;;7.25;;
28926;SDS011;16038;47.692;9.400;2023-08-20T12:07:08;12.85;;;7.05;;
28926;SDS011;16038;47.692;9.400;2023-08-20T12:09:38;16.48;;;7.35;;
28926;SDS011;16038;47.692;9.400;2023-08-20T12:12:05;14.15;;;7.85;;
28926;SDS011;16038;47.692;9.400;2023-08-20T12:14:31;12.85;;;7.75;;
28926;SDS011;16038;47.692;9.400;2023-08-20T12:16:56;15.32;;;8.20;;
28926;SDS011;16038;47.692;9.400;2023-08-20T12:19:22;11.80;;;7.53;;
28926;SDS011;16038;47.692;9.400;2023-08-20T12:21:48;11.90;;;7.47;;
28926;SDS011;16038;47.692;9.400;2023-08-20T12:24:14;11.75;;;7.05;;
28926;SDS011;16038;47.692;9.400;2023-08-20T12:26:40;12.20;;;7.68;;
28926;SDS011;16038;47.692;9.400;2023-08-20T12:29:05;11.93;;;7.07;;
28926;SDS011;16038;47.692;9.400;2023-08-20T12:31:31;13.80;;;8.38;;
28926;SDS011;16038;47.692;9.400;2023-08-20T12:33:57;9.90;;;6.72;;
28926;SDS011;16038;47.692;9.400;2023-08-20T12:36:23;12.50;;;7.50;;
28926;SDS011;16038;47.692;9.400;2023-08-20T12:38:48;12.68;;;7.80;;
28926;SDS011;16038;47.692;9.400;2023-08-20T12:41:14;15.45;;;7.55;;
28926;SDS011;16038;47.692;9.400;2023-08-20T12:43:40;15.15;;;7.78;;
28926;SDS011;16038;47.692;9.400;2023-08-20T12:46:05;13.85;;;7.38;;
28926;SDS011;16038;47.692;9.400;2023-08-20T12:48:30;12.40;;;7.63;;
28926;SDS011;16038;47.692;9.400;2023-08-20T12:50:56;13.85;;;7.47;;
28926;SDS011;16038;47.692;9.400;2023-08-20T12:53:22;10.73;;;7.15;;
28926;SDS011;16038;47.692;9.400;2023-08-20T12:55:47;15.77;;;7.32;;
28926;SDS011;16038;47.692;9.400;2023-08-20T12:58:13;14.88;;;8.07;;
28926;SDS011;16038;47.692;9.400;2023-08-20T13:00:38;13.45;;;7.05;;
28926;SDS011;16038;47.692;9.400;2023-08-20T13:03:04;15.02;;;7.32;;
28926;SDS011;16038;47.692;9.400;2023-08-20T13:05:30;14.98;;;7.10;;
28926;SDS011;16038;47.692;9.400;2023-08-20T13:07:55;13.45;;;7.07;;
28926;SDS011;16038;47.692;9.400;2023-08-20T13:10:21;16.00;;;7.03;;
28926;SDS011;16038;47.692;9.400;2023-08-20T13:12:51;13.25;;;6.72;;
28926;SDS011;16038;47.692;9.400;2023-08-20T13:15:19;14.40;;;7.03;;
28926;SDS011;16038;47.692;9.400;2023-08-20T13:17:46;15.23;;;6.80;;
28926;SDS011;16038;47.692;9.400;2023-08-20T13:20:14;13.50;;;6.75;;
28926;SDS011;16038;47.692;9.400;2023-08-20T13:22:40;13.73;;;7.10;;
28926;SDS011;16038;47.692;9.400;2023-08-20T13:25:06;9.98;;;6.88;;
28926;SDS011;16038;47.692;9.400;2023-08-20T13:27:32;11.52;;;7.40;;
28926;SDS011;16038;47.692;9.400;2023-08-20T13:29:57;10.38;;;6.70;;
28926;SDS011;16038;47.692;9.400;2023-08-20T13:32:23;14.30;;;7.25;;
28926;SDS011;16038;47.692;9.400;2023-08-20T13:34:51;14.15;;;7.30;;
28926;SDS011;16038;47.692;9.400;2023-08-20T13:37:17;14.65;;;6.82;;
28926;SDS011;16038;47.692;9.400;2023-08-20T13:39:42;10.00;;;6.35;;
28926;SDS011;16038;47.692;9.400;2023-08-20T13:42:08;12.38;;;6.57;;
28926;SDS011;16038;47.692;9.400;2023-08-20T13:44:33;12.52;;;5.75;;
28926;SDS011;16038;47.692;9.400;2023-08-20T13:46:59;10.15;;;6.35;;
28926;SDS011;16038;47.692;9.400;2023-08-20T13:49:24;11.20;;;5.90;;
28926;SDS011;16038;47.692;9.400;2023-08-20T13:51:50;11.50;;;5.60;;
28926;SDS011;16038;47.692;9.400;2023-08-20T13:54:15;9.15;;;5.78;;
28926;SDS011;16038;47.692;9.400;2023-08-20T13:56:41;13.68;;;6.00;;
28926;SDS011;16038;47.692;9.400;2023-08-20T13:59:06;12.50;;;6.47;;
28926;SDS011;16038;47.692;9.400;2023-08-20T14:01:34;10.38;;;5.70;;
28926;SDS011;16038;47.692;9.400;2023-08-20T14:04:00;10.50;;;5.88;;
28926;SDS011;16038;47.692;9.400;2023-08-20T14:06:25;14.25;;;5.97;;
28926;SDS011;16038;47.692;9.400;2023-08-20T14:08:50;17.13;;;6.72;;
28926;SDS011;16038;47.692;9.400;2023-08-20T14:11:16;10.82;;;6.30;;
28926;SDS011;16038;47.692;9.400;2023-08-20T14:13:41;9.48;;;6.30;;
28926;SDS011;16038;47.692;9.400;2023-08-20T14:16:07;13.65;;;6.28;;
28926;SDS011;16038;47.692;9.400;2023-08-20T14:18:33;11.27;;;6.00;;
28926;SDS011;16038;47.692;9.400;2023-08-20T14:20:58;12.20;;;5.93;;
28926;SDS011;16038;47.692;9.400;2023-08-20T14:23:24;9.60;;;6.30;;
28926;SDS011;16038;47.692;9.400;2023-08-20T14:25:49;13.85;;;6.03;;
28926;SDS011;16038;47.692;9.400;2023-08-20T14:28:15;12.60;;;5.70;;
28926;SDS011;16038;47.692;9.400;2023-08-20T14:30:40;13.00;;;5.65;;
28926;SDS011;16038;47.692;9.400;2023-08-20T14:33:06;12.05;;;5.50;;
28926;SDS011;16038;47.692;9.400;2023-08-20T14:35:31;7.88;;;5.57;;
28926;SDS011;16038;47.692;9.400;2023-08-20T14:37:58;16.08;;;6.20;;
28926;SDS011;16038;47.692;9.400;2023-08-20T14:40:23;9.70;;;5.72;;
28926;SDS011;16038;47.692;9.400;2023-08-20T14:42:49;15.07;;;6.13;;
28926;SDS011;16038;47.692;9.400;2023-08-20T14:45:15;12.38;;;5.50;;
28926;SDS011;16038;47.692;9.400;2023-08-20T14:47:40;11.48;;;5.20;;